Shawinigan, Canada
Current Conditions -  °F | °C
As of 9:00 PM on Thursday 20 Nov 2014 (Local Time) from CYRQ Reporting Station
Scattered Clouds Scattered Clouds  
Wind Chill: 13°   Ceiling: Unl
Heat Index: 27°   Visibility: 9mi
Dew Point: 14°   Wind: 18mph
Humidity: 59%   Direction: 220°SW
Pressure: 29.69"   Gusts: 28mph
Location:  46.54°N, 72.75°W
Report Text: CYRQ 210200Z AUTO 22016G24KT 9SM SCT140 M03/M10 A2969 RMK SLP058
Loading
Personal Weather Stations






























Interactive Weather Map New forecast layout! Learn more

10-Day Weather Forecast

Advertisements
Track Severe Weather on mobile